sensor_id;sensor_type;location;lat;lon;timestamp;temperature;humidity
41310;DHT22;27057;51.438;-0.010;2023-04-24T00:01:52;9.10;99.90
41310;DHT22;27057;51.438;-0.010;2023-04-24T00:04:20;9.10;99.90
41310;DHT22;27057;51.438;-0.010;2023-04-24T00:06:47;9.30;99.90
41310;DHT22;27057;51.438;-0.010;2023-04-24T00:09:21;10.00;99.90
41310;DHT22;27057;51.438;-0.010;2023-04-24T00:11:49;9.80;99.90
41310;DHT22;27057;51.438;-0.010;2023-04-24T00:14:17;9.10;99.90
41310;DHT22;27057;51.438;-0.010;2023-04-24T00:16:45;8.90;99.90
41310;DHT22;27057;51.438;-0.010;2023-04-24T00:19:12;9.10;99.90
41310;DHT22;27057;51.438;-0.010;2023-04-24T00:21:40;9.20;99.90
41310;DHT22;27057;51.438;-0.010;2023-04-24T00:24:08;9.00;99.90
41310;DHT22;27057;51.438;-0.010;2023-04-24T00:26:36;9.00;99.90
41310;DHT22;27057;51.438;-0.010;2023-04-24T00:29:04;10.00;99.90
41310;DHT22;27057;51.438;-0.010;2023-04-24T00:31:32;9.20;99.90
41310;DHT22;27057;51.438;-0.010;2023-04-24T00:34:02;9.30;99.90
41310;DHT22;27057;51.438;-0.010;2023-04-24T00:36:30;10.00;99.90
41310;DHT22;27057;51.438;-0.010;2023-04-24T00:38:58;9.20;99.90
41310;DHT22;27057;51.438;-0.010;2023-04-24T00:41:25;9.30;99.90
41310;DHT22;27057;51.438;-0.010;2023-04-24T00:43:53;9.00;99.90
41310;DHT22;27057;51.438;-0.010;2023-04-24T00:46:30;9.10;99.90
41310;DHT22;27057;51.438;-0.010;2023-04-24T00:48:59;9.10;99.90
41310;DHT22;27057;51.438;-0.010;2023-04-24T00:51:27;9.10;99.90
41310;DHT22;27057;51.438;-0.010;2023-04-24T00:53:54;9.10;99.90
41310;DHT22;27057;51.438;-0.010;2023-04-24T00:56:22;9.00;99.90
41310;DHT22;27057;51.438;-0.010;2023-04-24T00:58:50;9.00;99.90
41310;DHT22;27057;51.438;-0.010;2023-04-24T01:01:20;9.10;99.90
41310;DHT22;27057;51.438;-0.010;2023-04-24T01:03:51;9.00;99.90
41310;DHT22;27057;51.438;-0.010;2023-04-24T01:06:20;9.00;99.90
41310;DHT22;27057;51.438;-0.010;2023-04-24T01:08:51;9.30;99.90
41310;DHT22;27057;51.438;-0.010;2023-04-24T01:13:47;9.10;99.90
41310;DHT22;27057;51.438;-0.010;2023-04-24T01:16:15;9.10;99.90
41310;DHT22;27057;51.438;-0.010;2023-04-24T01:18:44;9.70;99.90
41310;DHT22;27057;51.438;-0.010;2023-04-24T01:21:16;9.20;99.90
41310;DHT22;27057;51.438;-0.010;2023-04-24T01:23:45;9.40;99.90
41310;DHT22;27057;51.438;-0.010;2023-04-24T01:26:14;9.20;99.90
41310;DHT22;27057;51.438;-0.010;2023-04-24T01:31:10;9.20;99.90
41310;DHT22;27057;51.438;-0.010;2023-04-24T01:33:38;9.20;99.90
41310;DHT22;27057;51.438;-0.010;2023-04-24T01:36:06;9.20;99.90
41310;DHT22;27057;51.438;-0.010;2023-04-24T01:38:37;9.20;99.90
41310;DHT22;27057;51.438;-0.010;2023-04-24T01:41:05;11.80;99.90
41310;DHT22;27057;51.438;-0.010;2023-04-24T01:43:33;9.10;99.90
41310;DHT22;27057;51.438;-0.010;2023-04-24T01:46:03;9.40;99.90
41310;DHT22;27057;51.438;-0.010;2023-04-24T01:48:30;9.40;99.90
41310;DHT22;27057;51.438;-0.010;2023-04-24T01:50:59;9.30;99.90
41310;DHT22;27057;51.438;-0.010;2023-04-24T01:53:26;10.00;99.90
41310;DHT22;27057;51.438;-0.010;2023-04-24T01:55:54;9.10;99.90
41310;DHT22;27057;51.438;-0.010;2023-04-24T01:58:22;9.00;99.90
41310;DHT22;27057;51.438;-0.010;2023-04-24T02:00:50;10.40;99.90
41310;DHT22;27057;51.438;-0.010;2023-04-24T02:03:17;9.20;99.90
41310;DHT22;27057;51.438;-0.010;2023-04-24T02:05:45;8.90;99.90
41310;DHT22;27057;51.438;-0.010;2023-04-24T02:08:13;8.90;99.90
41310;DHT22;27057;51.438;-0.010;2023-04-24T02:10:40;8.90;99.90
41310;DHT22;27057;51.438;-0.010;2023-04-24T02:13:08;9.30;99.90
41310;DHT22;27057;51.438;-0.010;2023-04-24T02:15:36;8.80;99.90
41310;DHT22;27057;51.438;-0.010;2023-04-24T02:18:04;9.30;99.90
41310;DHT22;27057;51.438;-0.010;2023-04-24T02:20:34;10.40;99.90
41310;DHT22;27057;51.438;-0.010;2023-04-24T02:23:02;8.80;99.90
41310;DHT22;27057;51.438;-0.010;2023-04-24T02:25:33;9.20;99.90
41310;DHT22;27057;51.438;-0.010;2023-04-24T02:28:00;9.00;99.90
41310;DHT22;27057;51.438;-0.010;2023-04-24T02:30:28;8.90;99.90
41310;DHT22;27057;51.438;-0.010;2023-04-24T02:32:55;10.00;99.90
41310;DHT22;27057;51.438;-0.010;2023-04-24T02:35:23;9.00;99.90
41310;DHT22;27057;51.438;-0.010;2023-04-24T02:37:50;9.00;99.90
41310;DHT22;27057;51.438;-0.010;2023-04-24T02:40:18;9.00;99.90
41310;DHT22;27057;51.438;-0.010;2023-04-24T02:42:46;8.80;99.90
41310;DHT22;27057;51.438;-0.010;2023-04-24T02:45:14;8.70;99.90
41310;DHT22;27057;51.438;-0.010;2023-04-24T02:47:41;8.50;99.90
41310;DHT22;27057;51.438;-0.010;2023-04-24T02:50:09;8.70;99.90
41310;DHT22;27057;51.438;-0.010;2023-04-24T02:52:37;8.70;99.90
41310;DHT22;27057;51.438;-0.010;2023-04-24T02:55:05;8.80;99.90
41310;DHT22;27057;51.438;-0.010;2023-04-24T02:57:32;8.70;99.90
41310;DHT22;27057;51.438;-0.010;2023-04-24T02:59:59;9.50;99.90
41310;DHT22;27057;51.438;-0.010;2023-04-24T03:02:27;9.80;99.90
41310;DHT22;27057;51.438;-0.010;2023-04-24T03:04:55;9.70;99.90
41310;DHT22;27057;51.438;-0.010;2023-04-24T03:07:22;8.70;99.90
41310;DHT22;27057;51.438;-0.010;2023-04-24T03:09:51;8.70;99.90
41310;DHT22;27057;51.438;-0.010;2023-04-24T03:12:18;8.80;99.90
41310;DHT22;27057;51.438;-0.010;2023-04-24T03:14:46;8.90;99.90
41310;DHT22;27057;51.438;-0.010;2023-04-24T03:17:14;9.10;99.90
41310;DHT22;27057;51.438;-0.010;2023-04-24T03:19:41;8.60;99.90
41310;DHT22;27057;51.438;-0.010;2023-04-24T03:22:11;8.50;99.90
41310;DHT22;27057;51.438;-0.010;2023-04-24T03:24:40;8.60;99.90
41310;DHT22;27057;51.438;-0.010;2023-04-24T03:27:07;9.80;99.90
41310;DHT22;27057;51.438;-0.010;2023-04-24T03:29:55;9.40;99.90
41310;DHT22;27057;51.438;-0.010;2023-04-24T03:32:33;8.70;99.90
41310;DHT22;27057;51.438;-0.010;2023-04-24T03:35:02;8.60;99.90
41310;DHT22;27057;51.438;-0.010;2023-04-24T03:37:30;8.60;99.90
41310;DHT22;27057;51.438;-0.010;2023-04-24T03:40:12;8.40;99.90
41310;DHT22;27057;51.438;-0.010;2023-04-24T03:42:40;8.70;99.90
41310;DHT22;27057;51.438;-0.010;2023-04-24T03:45:09;8.40;99.90
41310;DHT22;27057;51.438;-0.010;2023-04-24T03:47:39;8.60;99.90
41310;DHT22;27057;51.438;-0.010;2023-04-24T03:50:07;8.50;99.90
41310;DHT22;27057;51.438;-0.010;2023-04-24T03:52:36;8.60;99.90
41310;DHT22;27057;51.438;-0.010;2023-04-24T03:55:05;8.60;99.90
41310;DHT22;27057;51.438;-0.010;2023-04-24T03:57:39;8.60;99.90
41310;DHT22;27057;51.438;-0.010;2023-04-24T04:00:17;8.60;99.90
41310;DHT22;27057;51.438;-0.010;2023-04-24T04:02:52;8.40;99.90
41310;DHT22;27057;51.438;-0.010;2023-04-24T04:05:20;8.70;99.90
41310;DHT22;27057;51.438;-0.010;2023-04-24T04:07:48;8.40;99.90
41310;DHT22;27057;51.438;-0.010;2023-04-24T04:10:15;8.50;99.90
41310;DHT22;27057;51.438;-0.010;2023-04-24T04:12:44;9.50;99.90
41310;DHT22;27057;51.438;-0.010;2023-04-24T04:15:11;8.50;99.90
41310;DHT22;27057;51.438;-0.010;2023-04-24T04:17:41;8.60;99.90
41310;DHT22;27057;51.438;-0.010;2023-04-24T04:20:08;8.70;99.90
41310;DHT22;27057;51.438;-0.010;2023-04-24T04:22:39;8.50;99.90
41310;DHT22;27057;51.438;-0.010;2023-04-24T04:25:12;8.80;99.90
41310;DHT22;27057;51.438;-0.010;2023-04-24T04:27:41;8.40;99.90
41310;DHT22;27057;51.438;-0.010;2023-04-24T04:30:11;8.40;99.90
41310;DHT22;27057;51.438;-0.010;2023-04-24T04:32:47;8.40;99.90
41310;DHT22;27057;51.438;-0.010;2023-04-24T04:35:14;8.70;99.90
41310;DHT22;27057;51.438;-0.010;2023-04-24T04:37:42;8.50;99.90
41310;DHT22;27057;51.438;-0.010;2023-04-24T04:40:18;8.50;99.90
41310;DHT22;27057;51.438;-0.010;2023-04-24T04:42:54;8.40;99.90
41310;DHT22;27057;51.438;-0.010;2023-04-24T04:45:23;8.30;99.90
41310;DHT22;27057;51.438;-0.010;2023-04-24T04:48:11;8.50;99.90
41310;DHT22;27057;51.438;-0.010;2023-04-24T04:50:41;8.10;99.90
41310;DHT22;27057;51.438;-0.010;2023-04-24T04:53:09;8.20;99.90
41310;DHT22;27057;51.438;-0.010;2023-04-24T04:55:38;8.30;99.90
41310;DHT22;27057;51.438;-0.010;2023-04-24T04:58:11;10.20;99.90
41310;DHT22;27057;51.438;-0.010;2023-04-24T05:00:38;8.20;99.90
41310;DHT22;27057;51.438;-0.010;2023-04-24T05:03:15;8.30;99.90
41310;DHT22;27057;51.438;-0.010;2023-04-24T05:05:51;9.50;99.90
41310;DHT22;27057;51.438;-0.010;2023-04-24T05:08:18;9.00;99.90
41310;DHT22;27057;51.438;-0.010;2023-04-24T05:10:54;9.50;99.90
41310;DHT22;27057;51.438;-0.010;2023-04-24T05:13:23;8.30;99.90
41310;DHT22;27057;51.438;-0.010;2023-04-24T05:16:08;8.20;99.90
41310;DHT22;27057;51.438;-0.010;2023-04-24T05:18:36;8.40;99.90
41310;DHT22;27057;51.438;-0.010;2023-04-24T05:21:06;8.30;99.90
41310;DHT22;27057;51.438;-0.010;2023-04-24T05:23:35;8.50;99.90
41310;DHT22;27057;51.438;-0.010;2023-04-24T05:26:02;8.30;99.90
41310;DHT22;27057;51.438;-0.010;2023-04-24T05:28:33;8.40;99.90
41310;DHT22;27057;51.438;-0.010;2023-04-24T05:31:09;8.30;99.90
41310;DHT22;27057;51.438;-0.010;2023-04-24T05:33:37;8.20;99.90
41310;DHT22;27057;51.438;-0.010;2023-04-24T05:36:06;10.20;99.90
41310;DHT22;27057;51.438;-0.010;2023-04-24T05:38:33;8.40;99.90
41310;DHT22;27057;51.438;-0.010;2023-04-24T05:41:01;8.40;99.90
41310;DHT22;27057;51.438;-0.010;2023-04-24T05:43:29;8.40;99.90
41310;DHT22;27057;51.438;-0.010;2023-04-24T05:45:56;8.70;99.90
41310;DHT22;27057;51.438;-0.010;2023-04-24T05:48:24;8.40;99.90
41310;DHT22;27057;51.438;-0.010;2023-04-24T05:50:51;8.40;99.90
41310;DHT22;27057;51.438;-0.010;2023-04-24T05:53:20;8.50;99.90
41310;DHT22;27057;51.438;-0.010;2023-04-24T05:55:48;8.60;99.90
41310;DHT22;27057;51.438;-0.010;2023-04-24T05:58:16;8.50;99.90
41310;DHT22;27057;51.438;-0.010;2023-04-24T06:00:44;8.80;99.90
41310;DHT22;27057;51.438;-0.010;2023-04-24T06:03:14;8.80;99.90
41310;DHT22;27057;51.438;-0.010;2023-04-24T06:05:43;8.70;99.90
41310;DHT22;27057;51.438;-0.010;2023-04-24T06:08:11;9.10;99.90
41310;DHT22;27057;51.438;-0.010;2023-04-24T06:13:09;8.90;99.90
41310;DHT22;27057;51.438;-0.010;2023-04-24T06:15:40;8.80;99.90
41310;DHT22;27057;51.438;-0.010;2023-04-24T06:18:11;9.00;99.90
41310;DHT22;27057;51.438;-0.010;2023-04-24T06:20:41;8.90;99.90
41310;DHT22;27057;51.438;-0.010;2023-04-24T06:23:09;8.90;99.90
41310;DHT22;27057;51.438;-0.010;2023-04-24T06:25:37;9.00;99.90
41310;DHT22;27057;51.438;-0.010;2023-04-24T06:28:05;9.20;99.90
41310;DHT22;27057;51.438;-0.010;2023-04-24T06:30:33;9.10;99.90
41310;DHT22;27057;51.438;-0.010;2023-04-24T06:33:00;9.50;99.90
41310;DHT22;27057;51.438;-0.010;2023-04-24T06:35:46;9.40;99.90
41310;DHT22;27057;51.438;-0.010;2023-04-24T06:38:13;9.20;99.90
41310;DHT22;27057;51.438;-0.010;2023-04-24T06:40:40;9.30;99.90
41310;DHT22;27057;51.438;-0.010;2023-04-24T06:43:08;9.30;99.90
41310;DHT22;27057;51.438;-0.010;2023-04-24T06:45:35;9.70;99.90
41310;DHT22;27057;51.438;-0.010;2023-04-24T06:48:02;9.10;99.90
41310;DHT22;27057;51.438;-0.010;2023-04-24T06:52:58;9.40;99.90
41310;DHT22;27057;51.438;-0.010;2023-04-24T06:55:26;9.50;99.90
41310;DHT22;27057;51.438;-0.010;2023-04-24T06:57:54;9.60;99.90
41310;DHT22;27057;51.438;-0.010;2023-04-24T07:00:21;10.80;99.90
41310;DHT22;27057;51.438;-0.010;2023-04-24T07:02:51;9.60;99.90
41310;DHT22;27057;51.438;-0.010;2023-04-24T07:05:19;10.10;99.90
41310;DHT22;27057;51.438;-0.010;2023-04-24T07:07:50;9.30;99.90
41310;DHT22;27057;51.438;-0.010;2023-04-24T07:10:18;9.40;99.90
41310;DHT22;27057;51.438;-0.010;2023-04-24T07:12:45;9.30;99.90
41310;DHT22;27057;51.438;-0.010;2023-04-24T07:15:14;9.30;99.90
41310;DHT22;27057;51.438;-0.010;2023-04-24T07:17:41;9.60;99.90
41310;DHT22;27057;51.438;-0.010;2023-04-24T07:22:41;9.30;99.90
41310;DHT22;27057;51.438;-0.010;2023-04-24T07:25:09;9.40;99.90
41310;DHT22;27057;51.438;-0.010;2023-04-24T07:27:39;9.30;99.90
41310;DHT22;27057;51.438;-0.010;2023-04-24T07:30:07;9.50;99.90
41310;DHT22;27057;51.438;-0.010;2023-04-24T07:32:34;9.30;99.90
41310;DHT22;27057;51.438;-0.010;2023-04-24T07:35:02;9.90;99.90
41310;DHT22;27057;51.438;-0.010;2023-04-24T07:37:29;9.40;99.90
41310;DHT22;27057;51.438;-0.010;2023-04-24T07:39:58;11.00;99.90
41310;DHT22;27057;51.438;-0.010;2023-04-24T07:42:25;9.60;99.90
41310;DHT22;27057;51.438;-0.010;2023-04-24T07:44:53;9.60;99.90
41310;DHT22;27057;51.438;-0.010;2023-04-24T07:47:20;10.60;99.90
41310;DHT22;27057;51.438;-0.010;2023-04-24T07:49:47;9.50;99.90
41310;DHT22;27057;51.438;-0.010;2023-04-24T07:52:15;9.50;99.90
41310;DHT22;27057;51.438;-0.010;2023-04-24T07:54:42;9.60;99.90
41310;DHT22;27057;51.438;-0.010;2023-04-24T07:57:10;9.60;99.90
41310;DHT22;27057;51.438;-0.010;2023-04-24T07:59:37;10.30;99.90
41310;DHT22;27057;51.438;-0.010;2023-04-24T08:02:05;9.70;99.90
41310;DHT22;27057;51.438;-0.010;2023-04-24T08:04:33;9.60;99.90
41310;DHT22;27057;51.438;-0.010;2023-04-24T08:07:01;9.80;99.90
41310;DHT22;27057;51.438;-0.010;2023-04-24T08:09:28;9.60;99.90
41310;DHT22;27057;51.438;-0.010;2023-04-24T08:11:56;9.80;99.90
41310;DHT22;27057;51.438;-0.010;2023-04-24T08:14:24;9.70;99.90
41310;DHT22;27057;51.438;-0.010;2023-04-24T08:16:54;10.30;99.90
41310;DHT22;27057;51.438;-0.010;2023-04-24T08:19:23;10.80;99.90
41310;DHT22;27057;51.438;-0.010;2023-04-24T08:21:50;10.00;99.90
41310;DHT22;27057;51.438;-0.010;2023-04-24T08:24:17;10.00;99.90
41310;DHT22;27057;51.438;-0.010;2023-04-24T08:26:45;11.50;99.90
41310;DHT22;27057;51.438;-0.010;2023-04-24T08:29:13;10.40;99.90
41310;DHT22;27057;51.438;-0.010;2023-04-24T08:31:40;10.50;99.90
41310;DHT22;27057;51.438;-0.010;2023-04-24T08:34:09;10.70;99.90
41310;DHT22;27057;51.438;-0.010;2023-04-24T08:36:37;12.40;99.90
41310;DHT22;27057;51.438;-0.010;2023-04-24T08:39:14;11.10;99.90
41310;DHT22;27057;51.438;-0.010;2023-04-24T08:41:42;11.10;99.90
41310;DHT22;27057;51.438;-0.010;2023-04-24T08:44:11;10.80;99.90
41310;DHT22;27057;51.438;-0.010;2023-04-24T08:46:39;10.70;99.90
41310;DHT22;27057;51.438;-0.010;2023-04-24T08:49:08;10.80;99.90
41310;DHT22;27057;51.438;-0.010;2023-04-24T08:51:36;11.80;99.90
41310;DHT22;27057;51.438;-0.010;2023-04-24T08:54:05;12.10;99.90
41310;DHT22;27057;51.438;-0.010;2023-04-24T08:56:37;10.90;99.90
41310;DHT22;27057;51.438;-0.010;2023-04-24T08:59:08;12.10;99.90
41310;DHT22;27057;51.438;-0.010;2023-04-24T09:01:37;13.00;99.90
41310;DHT22;27057;51.438;-0.010;2023-04-24T09:04:08;11.10;99.90
41310;DHT22;27057;51.438;-0.010;2023-04-24T09:06:40;11.20;99.90
41310;DHT22;27057;51.438;-0.010;2023-04-24T09:09:08;11.70;99.90
41310;DHT22;27057;51.438;-0.010;2023-04-24T09:11:38;12.40;99.90
41310;DHT22;27057;51.438;-0.010;2023-04-24T09:14:06;11.40;99.90
41310;DHT22;27057;51.438;-0.010;2023-04-24T09:19:04;11.60;99.90
41310;DHT22;27057;51.438;-0.010;2023-04-24T09:21:33;11.70;99.90
41310;DHT22;27057;51.438;-0.010;2023-04-24T09:24:03;12.00;99.90
41310;DHT22;27057;51.438;-0.010;2023-04-24T09:26:32;11.70;99.90
41310;DHT22;27057;51.438;-0.010;2023-04-24T09:29:00;12.00;99.90
41310;DHT22;27057;51.438;-0.010;2023-04-24T09:31:29;11.90;99.90
41310;DHT22;27057;51.438;-0.010;2023-04-24T09:34:02;12.00;99.90
41310;DHT22;27057;51.438;-0.010;2023-04-24T09:36:42;12.30;99.90
41310;DHT22;27057;51.438;-0.010;2023-04-24T09:39:12;12.10;99.90
41310;DHT22;27057;51.438;-0.010;2023-04-24T09:42:01;12.20;99.90
41310;DHT22;27057;51.438;-0.010;2023-04-24T09:44:30;11.90;99.90
41310;DHT22;27057;51.438;-0.010;2023-04-24T09:47:01;12.20;99.90
41310;DHT22;27057;51.438;-0.010;2023-04-24T09:49:30;12.60;99.90
41310;DHT22;27057;51.438;-0.010;2023-04-24T09:54:33;13.60;99.90
41310;DHT22;27057;51.438;-0.010;2023-04-24T09:57:02;12.90;99.90
41310;DHT22;27057;51.438;-0.010;2023-04-24T10:01:59;12.90;99.90
41310;DHT22;27057;51.438;-0.010;2023-04-24T10:04:29;13.30;99.90
41310;DHT22;27057;51.438;-0.010;2023-04-24T10:06:57;12.90;99.90
41310;DHT22;27057;51.438;-0.010;2023-04-24T10:09:26;13.80;99.90
41310;DHT22;27057;51.438;-0.010;2023-04-24T10:11:54;12.70;99.90
41310;DHT22;27057;51.438;-0.010;2023-04-24T10:14:24;12.60;99.90
41310;DHT22;27057;51.438;-0.010;2023-04-24T10:16:54;12.70;99.90
41310;DHT22;27057;51.438;-0.010;2023-04-24T10:19:26;12.50;99.90
41310;DHT22;27057;51.438;-0.010;2023-04-24T10:21:53;12.50;99.90
41310;DHT22;27057;51.438;-0.010;2023-04-24T10:24:23;12.80;99.90
41310;DHT22;27057;51.438;-0.010;2023-04-24T10:26:50;12.70;99.90
41310;DHT22;27057;51.438;-0.010;2023-04-24T10:29:19;13.30;99.90
41310;DHT22;27057;51.438;-0.010;2023-04-24T10:31:46;13.50;99.90
41310;DHT22;27057;51.438;-0.010;2023-04-24T10:34:16;12.80;99.90
41310;DHT22;27057;51.438;-0.010;2023-04-24T10:36:48;12.90;99.90
41310;DHT22;27057;51.438;-0.010;2023-04-24T10:39:18;12.70;99.90
41310;DHT22;27057;51.438;-0.010;2023-04-24T10:41:55;12.60;99.90
41310;DHT22;27057;51.438;-0.010;2023-04-24T10:44:25;13.10;99.90
41310;DHT22;27057;51.438;-0.010;2023-04-24T10:47:02;12.80;99.90
41310;DHT22;27057;51.438;-0.010;2023-04-24T10:49:31;12.80;99.90
41310;DHT22;27057;51.438;-0.010;2023-04-24T10:52:03;12.70;99.90
41310;DHT22;27057;51.438;-0.010;2023-04-24T10:54:45;12.80;99.90
41310;DHT22;27057;51.438;-0.010;2023-04-24T10:57:26;12.60;99.90
41310;DHT22;27057;51.438;-0.010;2023-04-24T11:00:20;13.80;99.90
41310;DHT22;27057;51.438;-0.010;2023-04-24T11:02:48;12.60;99.90
41310;DHT22;27057;51.438;-0.010;2023-04-24T11:05:20;12.60;99.90
41310;DHT22;27057;51.438;-0.010;2023-04-24T11:08:13;13.90;99.90
41310;DHT22;27057;51.438;-0.010;2023-04-24T11:10:54;12.80;99.90
41310;DHT22;27057;51.438;-0.010;2023-04-24T11:13:24;12.90;99.90
41310;DHT22;27057;51.438;-0.010;2023-04-24T11:16:20;13.10;99.90
41310;DHT22;27057;51.438;-0.010;2023-04-24T11:19:04;13.20;99.90
41310;DHT22;27057;51.438;-0.010;2023-04-24T11:21:48;13.50;99.90
41310;DHT22;27057;51.438;-0.010;2023-04-24T11:24:49;13.80;99.90
41310;DHT22;27057;51.438;-0.010;2023-04-24T11:27:23;14.20;99.90
41310;DHT22;27057;51.438;-0.010;2023-04-24T11:30:02;14.50;99.90
41310;DHT22;27057;51.438;-0.010;2023-04-24T11:35:14;16.10;99.90
41310;DHT22;27057;51.438;-0.010;2023-04-24T11:37:48;14.80;99.90
41310;DHT22;27057;51.438;-0.010;2023-04-24T11:40:23;15.10;99.90
41310;DHT22;27057;51.438;-0.010;2023-04-24T11:42:51;14.70;99.90
41310;DHT22;27057;51.438;-0.010;2023-04-24T11:45:22;14.60;99.90
41310;DHT22;27057;51.438;-0.010;2023-04-24T11:47:50;14.80;99.90
41310;DHT22;27057;51.438;-0.010;2023-04-24T11:50:22;14.70;99.90
41310;DHT22;27057;51.438;-0.010;2023-04-24T11:52:50;14.50;99.90
41310;DHT22;27057;51.438;-0.010;2023-04-24T11:57:47;14.90;99.90
41310;DHT22;27057;51.438;-0.010;2023-04-24T12:00:32;14.60;99.90
41310;DHT22;27057;51.438;-0.010;2023-04-24T12:03:12;14.90;99.90
41310;DHT22;27057;51.438;-0.010;2023-04-24T12:05:40;14.80;99.90
41310;DHT22;27057;51.438;-0.010;2023-04-24T12:08:08;15.30;99.90
41310;DHT22;27057;51.438;-0.010;2023-04-24T12:13:03;15.60;99.90
41310;DHT22;27057;51.438;-0.010;2023-04-24T12:15:31;15.70;99.90
41310;DHT22;27057;51.438;-0.010;2023-04-24T12:17:59;15.90;99.90
41310;DHT22;27057;51.438;-0.010;2023-04-24T12:20:29;16.10;99.90
41310;DHT22;27057;51.438;-0.010;2023-04-24T12:22:57;16.50;99.90
41310;DHT22;27057;51.438;-0.010;2023-04-24T12:25:38;17.00;99.90
41310;DHT22;27057;51.438;-0.010;2023-04-24T12:30:41;17.30;99.90
41310;DHT22;27057;51.438;-0.010;2023-04-24T12:33:11;17.00;99.90
41310;DHT22;27057;51.438;-0.010;2023-04-24T12:35:40;16.60;99.90
41310;DHT22;27057;51.438;-0.010;2023-04-24T12:38:13;16.20;99.90
41310;DHT22;27057;51.438;-0.010;2023-04-24T12:40:41;16.10;99.90
41310;DHT22;27057;51.438;-0.010;2023-04-24T12:43:17;16.10;99.90
41310;DHT22;27057;51.438;-0.010;2023-04-24T12:45:47;16.30;99.90
41310;DHT22;27057;51.438;-0.010;2023-04-24T12:48:14;16.80;99.90
41310;DHT22;27057;51.438;-0.010;2023-04-24T12:50:42;17.30;99.90
41310;DHT22;27057;51.438;-0.010;2023-04-24T12:53:13;17.70;99.90
41310;DHT22;27057;51.438;-0.010;2023-04-24T12:55:42;18.40;99.90
41310;DHT22;27057;51.438;-0.010;2023-04-24T12:58:10;17.60;99.90
41310;DHT22;27057;51.438;-0.010;2023-04-24T13:00:38;17.50;99.90
41310;DHT22;27057;51.438;-0.010;2023-04-24T13:05:34;17.30;99.90
41310;DHT22;27057;51.438;-0.010;2023-04-24T13:08:02;17.70;99.90
41310;DHT22;27057;51.438;-0.010;2023-04-24T13:10:29;17.20;99.90
41310;DHT22;27057;51.438;-0.010;2023-04-24T13:12:57;17.40;99.90
41310;DHT22;27057;51.438;-0.010;2023-04-24T13:15:25;17.60;99.90
41310;DHT22;27057;51.438;-0.010;2023-04-24T13:17:52;17.80;99.90
41310;DHT22;27057;51.438;-0.010;2023-04-24T13:20:19;18.00;99.90
41310;DHT22;27057;51.438;-0.010;2023-04-24T13:22:47;18.30;99.90
41310;DHT22;27057;51.438;-0.010;2023-04-24T13:25:14;18.50;99.90
41310;DHT22;27057;51.438;-0.010;2023-04-24T13:27:44;18.80;99.90
41310;DHT22;27057;51.438;-0.010;2023-04-24T13:30:12;19.10;99.90
41310;DHT22;27057;51.438;-0.010;2023-04-24T13:32:39;19.50;99.90
41310;DHT22;27057;51.438;-0.010;2023-04-24T13:35:07;20.10;99.90
41310;DHT22;27057;51.438;-0.010;2023-04-24T13:37:35;20.20;99.90
41310;DHT22;27057;51.438;-0.010;2023-04-24T13:40:02;20.40;99.90
41310;DHT22;27057;51.438;-0.010;2023-04-24T13:42:33;20.70;99.90
41310;DHT22;27057;51.438;-0.010;2023-04-24T13:45:01;20.90;99.90
41310;DHT22;27057;51.438;-0.010;2023-04-24T13:47:43;21.10;99.90
41310;DHT22;27057;51.438;-0.010;2023-04-24T13:50:11;21.30;99.90
41310;DHT22;27057;51.438;-0.010;2023-04-24T13:52:38;21.50;99.90
41310;DHT22;27057;51.438;-0.010;2023-04-24T13:55:06;21.60;99.90
41310;DHT22;27057;51.438;-0.010;2023-04-24T13:57:33;21.50;99.90
41310;DHT22;27057;51.438;-0.010;2023-04-24T14:02:33;21.50;99.90
41310;DHT22;27057;51.438;-0.010;2023-04-24T14:05:00;21.30;99.90
41310;DHT22;27057;51.438;-0.010;2023-04-24T14:07:29;21.00;99.90
41310;DHT22;27057;51.438;-0.010;2023-04-24T14:09:57;20.10;99.90
41310;DHT22;27057;51.438;-0.010;2023-04-24T14:12:24;19.60;99.90
41310;DHT22;27057;51.438;-0.010;2023-04-24T14:14:54;18.90;99.90
41310;DHT22;27057;51.438;-0.010;2023-04-24T14:17:21;18.40;99.90
41310;DHT22;27057;51.438;-0.010;2023-04-24T14:19:49;18.50;99.90
41310;DHT22;27057;51.438;-0.010;2023-04-24T14:22:18;18.20;99.90
41310;DHT22;27057;51.438;-0.010;2023-04-24T14:24:46;18.40;99.90
41310;DHT22;27057;51.438;-0.010;2023-04-24T14:27:14;18.20;99.90
41310;DHT22;27057;51.438;-0.010;2023-04-24T14:29:41;18.40;99.90
41310;DHT22;27057;51.438;-0.010;2023-04-24T14:34:36;19.20;99.90
41310;DHT22;27057;51.438;-0.010;2023-04-24T14:37:03;19.60;99.90
41310;DHT22;27057;51.438;-0.010;2023-04-24T14:39:31;20.00;99.90
41310;DHT22;27057;51.438;-0.010;2023-04-24T14:41:58;20.30;99.90
41310;DHT22;27057;51.438;-0.010;2023-04-24T14:44:26;20.50;99.90
41310;DHT22;27057;51.438;-0.010;2023-04-24T14:46:53;20.70;99.90
41310;DHT22;27057;51.438;-0.010;2023-04-24T14:49:20;20.70;99.90
41310;DHT22;27057;51.438;-0.010;2023-04-24T14:51:48;20.60;99.90
41310;DHT22;27057;51.438;-0.010;2023-04-24T14:54:15;20.10;99.90
41310;DHT22;27057;51.438;-0.010;2023-04-24T14:56:43;19.40;99.70
41310;DHT22;27057;51.438;-0.010;2023-04-24T14:59:11;18.90;99.90
41310;DHT22;27057;51.438;-0.010;2023-04-24T15:01:38;18.40;99.90
41310;DHT22;27057;51.438;-0.010;2023-04-24T15:06:35;17.50;99.90
41310;DHT22;27057;51.438;-0.010;2023-04-24T15:09:02;17.10;99.90
41310;DHT22;27057;51.438;-0.010;2023-04-24T15:11:30;16.90;99.90
41310;DHT22;27057;51.438;-0.010;2023-04-24T15:13:58;16.70;99.90
41310;DHT22;27057;51.438;-0.010;2023-04-24T15:16:25;16.30;99.90
41310;DHT22;27057;51.438;-0.010;2023-04-24T15:18:52;16.00;99.90
41310;DHT22;27057;51.438;-0.010;2023-04-24T15:21:20;15.90;99.90
41310;DHT22;27057;51.438;-0.010;2023-04-24T15:23:48;15.50;99.90
41310;DHT22;27057;51.438;-0.010;2023-04-24T15:28:43;14.90;99.90
41310;DHT22;27057;51.438;-0.010;2023-04-24T15:31:11;14.10;99.90
41310;DHT22;27057;51.438;-0.010;2023-04-24T15:33:38;14.20;99.90
41310;DHT22;27057;51.438;-0.010;2023-04-24T15:36:06;12.30;99.90
41310;DHT22;27057;51.438;-0.010;2023-04-24T15:38:34;11.80;99.90
41310;DHT22;27057;51.438;-0.010;2023-04-24T15:41:01;12.70;99.90
41310;DHT22;27057;51.438;-0.010;2023-04-24T15:43:29;11.00;99.90
41310;DHT22;27057;51.438;-0.010;2023-04-24T15:45:58;11.00;99.90
41310;DHT22;27057;51.438;-0.010;2023-04-24T15:48:26;10.50;99.90
41310;DHT22;27057;51.438;-0.010;2023-04-24T15:53:22;10.00;99.90
41310;DHT22;27057;51.438;-0.010;2023-04-24T15:55:52;10.10;99.90
41310;DHT22;27057;51.438;-0.010;2023-04-24T15:58:21;9.90;99.90
41310;DHT22;27057;51.438;-0.010;2023-04-24T16:00:49;9.80;99.90
41310;DHT22;27057;51.438;-0.010;2023-04-24T16:03:16;9.70;99.90
41310;DHT22;27057;51.438;-0.010;2023-04-24T16:05:44;10.00;99.90
41310;DHT22;27057;51.438;-0.010;2023-04-24T16:08:11;9.60;99.90
41310;DHT22;27057;51.438;-0.010;2023-04-24T16:10:41;9.70;99.90
41310;DHT22;27057;51.438;-0.010;2023-04-24T16:13:09;9.40;99.90
41310;DHT22;27057;51.438;-0.010;2023-04-24T16:15:38;9.70;99.90
41310;DHT22;27057;51.438;-0.010;2023-04-24T16:18:06;10.50;99.90
41310;DHT22;27057;51.438;-0.010;2023-04-24T16:20:33;8.90;99.90
41310;DHT22;27057;51.438;-0.010;2023-04-24T16:23:01;9.20;99.90